sensor_id;sensor_type;location;lat;lon;timestamp;P1;durP1;ratioP1;P2;durP2;ratioP2
70388;SDS011;58659;49.050;8.530;2023-02-28T00:01:29;0.97;;;0.87;;
70388;SDS011;58659;49.050;8.530;2023-02-28T00:03:55;1.00;;;0.80;;
70388;SDS011;58659;49.050;8.530;2023-02-28T00:06:20;4.70;;;1.00;;
70388;SDS011;58659;49.050;8.530;2023-02-28T00:08:46;1.90;;;1.20;;
70388;SDS011;58659;49.050;8.530;2023-02-28T00:11:12;1.43;;;0.83;;
70388;SDS011;58659;49.050;8.530;2023-02-28T00:13:41;1.37;;;0.87;;
70388;SDS011;58659;49.050;8.530;2023-02-28T00:16:09;3.00;;;1.17;;
70388;SDS011;58659;49.050;8.530;2023-02-28T00:18:36;1.23;;;0.90;;
70388;SDS011;58659;49.050;8.530;2023-02-28T00:21:02;3.97;;;1.40;;
70388;SDS011;58659;49.050;8.530;2023-02-28T00:23:28;2.83;;;1.37;;
70388;SDS011;58659;49.050;8.530;2023-02-28T00:25:53;3.27;;;1.63;;
70388;SDS011;58659;49.050;8.530;2023-02-28T00:28:19;1.73;;;0.90;;
70388;SDS011;58659;49.050;8.530;2023-02-28T00:30:44;1.90;;;1.07;;
70388;SDS011;58659;49.050;8.530;2023-02-28T00:33:10;1.83;;;1.20;;
70388;SDS011;58659;49.050;8.530;2023-02-28T00:35:35;2.90;;;1.00;;
70388;SDS011;58659;49.050;8.530;2023-02-28T00:38:00;1.20;;;0.97;;
70388;SDS011;58659;49.050;8.530;2023-02-28T00:40:26;2.00;;;0.70;;
70388;SDS011;58659;49.050;8.530;2023-02-28T00:42:52;1.30;;;1.20;;
70388;SDS011;58659;49.050;8.530;2023-02-28T00:45:17;0.97;;;0.70;;
70388;SDS011;58659;49.050;8.530;2023-02-28T00:47:42;0.90;;;0.80;;
70388;SDS011;58659;49.050;8.530;2023-02-28T00:50:11;2.57;;;1.20;;
70388;SDS011;58659;49.050;8.530;2023-02-28T00:52:37;2.40;;;1.03;;
70388;SDS011;58659;49.050;8.530;2023-02-28T00:55:02;2.03;;;1.03;;
70388;SDS011;58659;49.050;8.530;2023-02-28T00:57:27;0.70;;;0.70;;
70388;SDS011;58659;49.050;8.530;2023-02-28T00:59:53;2.20;;;1.00;;
70388;SDS011;58659;49.050;8.530;2023-02-28T01:02:19;3.23;;;1.20;;
70388;SDS011;58659;49.050;8.530;2023-02-28T01:04:46;2.50;;;1.20;;
70388;SDS011;58659;49.050;8.530;2023-02-28T01:07:11;2.83;;;1.00;;
70388;SDS011;58659;49.050;8.530;2023-02-28T01:09:37;1.17;;;1.03;;
70388;SDS011;58659;49.050;8.530;2023-02-28T01:12:02;1.47;;;1.03;;
70388;SDS011;58659;49.050;8.530;2023-02-28T01:14:27;1.07;;;0.97;;
70388;SDS011;58659;49.050;8.530;2023-02-28T01:16:53;4.17;;;2.10;;
70388;SDS011;58659;49.050;8.530;2023-02-28T01:19:18;2.03;;;1.30;;
70388;SDS011;58659;49.050;8.530;2023-02-28T01:21:43;1.20;;;1.00;;
70388;SDS011;58659;49.050;8.530;2023-02-28T01:24:09;1.07;;;0.80;;
70388;SDS011;58659;49.050;8.530;2023-02-28T01:26:34;1.50;;;0.90;;
70388;SDS011;58659;49.050;8.530;2023-02-28T01:28:59;1.20;;;0.90;;
70388;SDS011;58659;49.050;8.530;2023-02-28T01:31:24;2.27;;;1.00;;
70388;SDS011;58659;49.050;8.530;2023-02-28T01:33:50;2.27;;;1.27;;
70388;SDS011;58659;49.050;8.530;2023-02-28T01:36:25;0.70;;;0.70;;
70388;SDS011;58659;49.050;8.530;2023-02-28T01:38:50;3.57;;;1.37;;
70388;SDS011;58659;49.050;8.530;2023-02-28T01:41:20;1.80;;;0.97;;
70388;SDS011;58659;49.050;8.530;2023-02-28T01:46:13;1.63;;;1.20;;
70388;SDS011;58659;49.050;8.530;2023-02-28T01:48:44;1.50;;;0.90;;
70388;SDS011;58659;49.050;8.530;2023-02-28T01:51:41;1.77;;;1.27;;
70388;SDS011;58659;49.050;8.530;2023-02-28T01:54:18;2.60;;;1.10;;
70388;SDS011;58659;49.050;8.530;2023-02-28T01:56:50;2.23;;;1.13;;
70388;SDS011;58659;49.050;8.530;2023-02-28T01:59:23;1.57;;;1.27;;
70388;SDS011;58659;49.050;8.530;2023-02-28T02:01:53;1.43;;;1.07;;
70388;SDS011;58659;49.050;8.530;2023-02-28T02:04:19;2.37;;;1.17;;
70388;SDS011;58659;49.050;8.530;2023-02-28T02:06:46;4.23;;;1.27;;
70388;SDS011;58659;49.050;8.530;2023-02-28T02:09:13;1.50;;;1.13;;
70388;SDS011;58659;49.050;8.530;2023-02-28T02:11:39;1.20;;;1.00;;
70388;SDS011;58659;49.050;8.530;2023-02-28T02:17:19;2.70;;;1.27;;
70388;SDS011;58659;49.050;8.530;2023-02-28T02:37:13;1.20;;;1.10;;
70388;SDS011;58659;49.050;8.530;2023-02-28T02:42:15;2.43;;;0.97;;
70388;SDS011;58659;49.050;8.530;2023-02-28T02:44:51;2.87;;;1.23;;
70388;SDS011;58659;49.050;8.530;2023-02-28T02:47:23;3.17;;;1.60;;
70388;SDS011;58659;49.050;8.530;2023-02-28T02:49:55;1.97;;;1.20;;
70388;SDS011;58659;49.050;8.530;2023-02-28T02:52:24;1.90;;;1.20;;
70388;SDS011;58659;49.050;8.530;2023-02-28T02:54:57;1.17;;;0.83;;
70388;SDS011;58659;49.050;8.530;2023-02-28T02:57:32;1.80;;;1.00;;
70388;SDS011;58659;49.050;8.530;2023-02-28T03:00:02;3.13;;;1.57;;
70388;SDS011;58659;49.050;8.530;2023-02-28T03:02:30;2.10;;;1.10;;
70388;SDS011;58659;49.050;8.530;2023-02-28T03:04:59;2.23;;;1.47;;
70388;SDS011;58659;49.050;8.530;2023-02-28T03:07:29;3.17;;;1.37;;
70388;SDS011;58659;49.050;8.530;2023-02-28T03:09:55;1.93;;;1.30;;
70388;SDS011;58659;49.050;8.530;2023-02-28T03:12:45;2.47;;;0.90;;
70388;SDS011;58659;49.050;8.530;2023-02-28T03:15:20;2.30;;;1.00;;
70388;SDS011;58659;49.050;8.530;2023-02-28T03:20:21;1.97;;;1.10;;
70388;SDS011;58659;49.050;8.530;2023-02-28T03:25:35;1.97;;;1.20;;
70388;SDS011;58659;49.050;8.530;2023-02-28T03:31:25;1.77;;;1.07;;
70388;SDS011;58659;49.050;8.530;2023-02-28T03:34:08;3.47;;;1.43;;
70388;SDS011;58659;49.050;8.530;2023-02-28T03:36:53;1.23;;;1.00;;
70388;SDS011;58659;49.050;8.530;2023-02-28T03:39:34;2.20;;;1.13;;
70388;SDS011;58659;49.050;8.530;2023-02-28T03:42:19;2.17;;;1.40;;
70388;SDS011;58659;49.050;8.530;2023-02-28T03:44:51;3.33;;;1.60;;
70388;SDS011;58659;49.050;8.530;2023-02-28T03:47:26;1.53;;;1.03;;
70388;SDS011;58659;49.050;8.530;2023-02-28T03:49:55;1.97;;;1.20;;
70388;SDS011;58659;49.050;8.530;2023-02-28T03:52:22;2.83;;;1.23;;
70388;SDS011;58659;49.050;8.530;2023-02-28T03:54:54;3.77;;;1.40;;
70388;SDS011;58659;49.050;8.530;2023-02-28T04:00:00;2.47;;;1.53;;
70388;SDS011;58659;49.050;8.530;2023-02-28T04:02:31;2.37;;;1.10;;
70388;SDS011;58659;49.050;8.530;2023-02-28T04:04:57;1.90;;;1.70;;
70388;SDS011;58659;49.050;8.530;2023-02-28T04:10:38;2.50;;;1.30;;
70388;SDS011;58659;49.050;8.530;2023-02-28T04:13:04;1.53;;;1.10;;
70388;SDS011;58659;49.050;8.530;2023-02-28T04:15:29;2.50;;;1.03;;
70388;SDS011;58659;49.050;8.530;2023-02-28T04:17:54;1.53;;;0.90;;
70388;SDS011;58659;49.050;8.530;2023-02-28T04:20:20;3.10;;;1.40;;
70388;SDS011;58659;49.050;8.530;2023-02-28T04:22:45;4.40;;;1.17;;
70388;SDS011;58659;49.050;8.530;2023-02-28T04:25:10;2.93;;;1.33;;
70388;SDS011;58659;49.050;8.530;2023-02-28T04:27:36;1.53;;;0.97;;
70388;SDS011;58659;49.050;8.530;2023-02-28T04:30:01;2.63;;;1.40;;
70388;SDS011;58659;49.050;8.530;2023-02-28T04:32:27;2.33;;;1.50;;
70388;SDS011;58659;49.050;8.530;2023-02-28T04:34:53;2.23;;;1.47;;
70388;SDS011;58659;49.050;8.530;2023-02-28T04:37:18;3.17;;;1.33;;
70388;SDS011;58659;49.050;8.530;2023-02-28T04:39:43;1.60;;;1.33;;
70388;SDS011;58659;49.050;8.530;2023-02-28T04:42:09;3.30;;;1.33;;
70388;SDS011;58659;49.050;8.530;2023-02-28T04:44:35;5.60;;;1.37;;
70388;SDS011;58659;49.050;8.530;2023-02-28T04:47:01;3.63;;;1.20;;
70388;SDS011;58659;49.050;8.530;2023-02-28T04:49:26;1.20;;;1.10;;
70388;SDS011;58659;49.050;8.530;2023-02-28T04:51:51;2.13;;;1.20;;
70388;SDS011;58659;49.050;8.530;2023-02-28T04:54:17;1.83;;;1.43;;
70388;SDS011;58659;49.050;8.530;2023-02-28T04:56:43;1.33;;;1.00;;
70388;SDS011;58659;49.050;8.530;2023-02-28T04:59:08;3.10;;;1.73;;
70388;SDS011;58659;49.050;8.530;2023-02-28T05:01:33;3.20;;;1.50;;
70388;SDS011;58659;49.050;8.530;2023-02-28T05:04:00;3.47;;;1.43;;
70388;SDS011;58659;49.050;8.530;2023-02-28T05:06:27;2.70;;;1.00;;
70388;SDS011;58659;49.050;8.530;2023-02-28T05:08:55;3.87;;;1.53;;
70388;SDS011;58659;49.050;8.530;2023-02-28T05:13:48;4.43;;;1.40;;
70388;SDS011;58659;49.050;8.530;2023-02-28T05:16:14;2.73;;;1.27;;
70388;SDS011;58659;49.050;8.530;2023-02-28T05:18:40;7.30;;;1.70;;
70388;SDS011;58659;49.050;8.530;2023-02-28T05:21:05;2.73;;;1.50;;
70388;SDS011;58659;49.050;8.530;2023-02-28T05:23:39;2.93;;;1.27;;
70388;SDS011;58659;49.050;8.530;2023-02-28T05:26:05;7.60;;;1.60;;
70388;SDS011;58659;49.050;8.530;2023-02-28T05:28:30;5.73;;;1.53;;
70388;SDS011;58659;49.050;8.530;2023-02-28T05:30:55;2.00;;;1.23;;
70388;SDS011;58659;49.050;8.530;2023-02-28T05:33:21;3.23;;;1.27;;
70388;SDS011;58659;49.050;8.530;2023-02-28T05:35:46;4.07;;;1.93;;
70388;SDS011;58659;49.050;8.530;2023-02-28T05:38:11;2.60;;;1.17;;
70388;SDS011;58659;49.050;8.530;2023-02-28T05:40:38;5.47;;;1.70;;
70388;SDS011;58659;49.050;8.530;2023-02-28T05:43:05;2.80;;;1.43;;
70388;SDS011;58659;49.050;8.530;2023-02-28T05:45:30;3.53;;;2.03;;
70388;SDS011;58659;49.050;8.530;2023-02-28T05:47:55;3.27;;;1.70;;
70388;SDS011;58659;49.050;8.530;2023-02-28T05:50:21;3.30;;;1.83;;
70388;SDS011;58659;49.050;8.530;2023-02-28T05:52:50;2.83;;;1.97;;
70388;SDS011;58659;49.050;8.530;2023-02-28T05:55:16;6.03;;;2.10;;
70388;SDS011;58659;49.050;8.530;2023-02-28T05:57:41;3.37;;;1.63;;
70388;SDS011;58659;49.050;8.530;2023-02-28T06:00:07;2.17;;;1.67;;
70388;SDS011;58659;49.050;8.530;2023-02-28T06:02:33;3.27;;;1.50;;
70388;SDS011;58659;49.050;8.530;2023-02-28T06:04:58;3.30;;;1.50;;
70388;SDS011;58659;49.050;8.530;2023-02-28T06:07:24;2.80;;;1.80;;
70388;SDS011;58659;49.050;8.530;2023-02-28T06:09:49;3.77;;;1.43;;
70388;SDS011;58659;49.050;8.530;2023-02-28T06:12:14;3.30;;;1.53;;
70388;SDS011;58659;49.050;8.530;2023-02-28T06:14:40;3.10;;;1.50;;
70388;SDS011;58659;49.050;8.530;2023-02-28T06:17:06;2.00;;;0.93;;
70388;SDS011;58659;49.050;8.530;2023-02-28T06:19:31;4.13;;;1.70;;
70388;SDS011;58659;49.050;8.530;2023-02-28T06:21:57;3.50;;;1.87;;
70388;SDS011;58659;49.050;8.530;2023-02-28T06:24:23;2.43;;;1.37;;
70388;SDS011;58659;49.050;8.530;2023-02-28T06:26:49;2.97;;;1.90;;
70388;SDS011;58659;49.050;8.530;2023-02-28T06:29:15;2.73;;;1.23;;
70388;SDS011;58659;49.050;8.530;2023-02-28T06:31:42;4.73;;;1.90;;
70388;SDS011;58659;49.050;8.530;2023-02-28T06:34:08;2.57;;;1.17;;
70388;SDS011;58659;49.050;8.530;2023-02-28T06:36:36;2.77;;;1.33;;
70388;SDS011;58659;49.050;8.530;2023-02-28T06:39:02;5.03;;;1.80;;
70388;SDS011;58659;49.050;8.530;2023-02-28T06:41:27;2.93;;;1.70;;
70388;SDS011;58659;49.050;8.530;2023-02-28T06:43:53;3.00;;;1.67;;
70388;SDS011;58659;49.050;8.530;2023-02-28T06:46:18;2.90;;;1.40;;
70388;SDS011;58659;49.050;8.530;2023-02-28T06:48:44;0.87;;;0.60;;
70388;SDS011;58659;49.050;8.530;2023-02-28T06:51:19;4.13;;;1.63;;
70388;SDS011;58659;49.050;8.530;2023-02-28T06:53:47;2.93;;;1.60;;
70388;SDS011;58659;49.050;8.530;2023-02-28T06:56:13;4.00;;;1.90;;
70388;SDS011;58659;49.050;8.530;2023-02-28T06:58:40;3.63;;;1.50;;
70388;SDS011;58659;49.050;8.530;2023-02-28T07:01:06;2.80;;;1.83;;
70388;SDS011;58659;49.050;8.530;2023-02-28T07:03:32;4.27;;;1.53;;
70388;SDS011;58659;49.050;8.530;2023-02-28T07:05:57;2.97;;;1.40;;
70388;SDS011;58659;49.050;8.530;2023-02-28T07:08:24;1.70;;;1.13;;
70388;SDS011;58659;49.050;8.530;2023-02-28T07:10:53;3.03;;;1.23;;
70388;SDS011;58659;49.050;8.530;2023-02-28T07:13:20;5.70;;;1.27;;
70388;SDS011;58659;49.050;8.530;2023-02-28T07:15:56;5.13;;;1.57;;
70388;SDS011;58659;49.050;8.530;2023-02-28T07:18:25;2.77;;;1.03;;
70388;SDS011;58659;49.050;8.530;2023-02-28T07:20:51;3.17;;;1.83;;
70388;SDS011;58659;49.050;8.530;2023-02-28T07:23:16;2.17;;;1.40;;
70388;SDS011;58659;49.050;8.530;2023-02-28T07:25:42;3.00;;;1.30;;
70388;SDS011;58659;49.050;8.530;2023-02-28T07:28:07;1.70;;;1.00;;
70388;SDS011;58659;49.050;8.530;2023-02-28T07:30:32;4.30;;;1.90;;
70388;SDS011;58659;49.050;8.530;2023-02-28T07:32:58;2.33;;;1.20;;
70388;SDS011;58659;49.050;8.530;2023-02-28T07:35:24;2.00;;;1.10;;
70388;SDS011;58659;49.050;8.530;2023-02-28T07:37:49;2.70;;;1.30;;
70388;SDS011;58659;49.050;8.530;2023-02-28T07:40:14;3.43;;;1.70;;
70388;SDS011;58659;49.050;8.530;2023-02-28T07:42:40;2.27;;;1.33;;
70388;SDS011;58659;49.050;8.530;2023-02-28T07:45:07;3.43;;;1.37;;
70388;SDS011;58659;49.050;8.530;2023-02-28T07:47:33;4.10;;;1.40;;
70388;SDS011;58659;49.050;8.530;2023-02-28T07:49:58;1.80;;;1.30;;
70388;SDS011;58659;49.050;8.530;2023-02-28T07:52:24;3.97;;;1.73;;
70388;SDS011;58659;49.050;8.530;2023-02-28T07:54:49;2.03;;;1.23;;
70388;SDS011;58659;49.050;8.530;2023-02-28T07:57:15;1.43;;;1.10;;
70388;SDS011;58659;49.050;8.530;2023-02-28T07:59:41;3.57;;;1.50;;
70388;SDS011;58659;49.050;8.530;2023-02-28T08:02:06;6.33;;;1.83;;
70388;SDS011;58659;49.050;8.530;2023-02-28T08:04:32;2.73;;;1.70;;
70388;SDS011;58659;49.050;8.530;2023-02-28T08:06:57;4.70;;;1.10;;
70388;SDS011;58659;49.050;8.530;2023-02-28T08:09:23;4.63;;;1.60;;
70388;SDS011;58659;49.050;8.530;2023-02-28T08:11:48;3.13;;;1.33;;
70388;SDS011;58659;49.050;8.530;2023-02-28T08:14:14;2.57;;;1.40;;
70388;SDS011;58659;49.050;8.530;2023-02-28T08:16:39;2.60;;;1.33;;
70388;SDS011;58659;49.050;8.530;2023-02-28T08:19:04;9.23;;;2.23;;
70388;SDS011;58659;49.050;8.530;2023-02-28T08:21:30;2.07;;;1.87;;
70388;SDS011;58659;49.050;8.530;2023-02-28T08:23:55;3.50;;;1.20;;
70388;SDS011;58659;49.050;8.530;2023-02-28T08:26:22;2.20;;;1.03;;
70388;SDS011;58659;49.050;8.530;2023-02-28T08:28:47;4.43;;;1.53;;
70388;SDS011;58659;49.050;8.530;2023-02-28T08:31:14;4.10;;;1.47;;
70388;SDS011;58659;49.050;8.530;2023-02-28T08:33:40;4.87;;;1.83;;
70388;SDS011;58659;49.050;8.530;2023-02-28T08:36:07;1.93;;;1.13;;
70388;SDS011;58659;49.050;8.530;2023-02-28T08:38:33;1.90;;;1.70;;
70388;SDS011;58659;49.050;8.530;2023-02-28T08:40:59;5.30;;;2.27;;
70388;SDS011;58659;49.050;8.530;2023-02-28T08:43:26;1.97;;;1.20;;
70388;SDS011;58659;49.050;8.530;2023-02-28T08:45:53;1.67;;;1.17;;
70388;SDS011;58659;49.050;8.530;2023-02-28T08:48:19;5.87;;;2.27;;
70388;SDS011;58659;49.050;8.530;2023-02-28T08:50:53;1.63;;;1.13;;
70388;SDS011;58659;49.050;8.530;2023-02-28T08:53:41;2.27;;;1.57;;
70388;SDS011;58659;49.050;8.530;2023-02-28T08:56:07;9.93;;;1.57;;
70388;SDS011;58659;49.050;8.530;2023-02-28T08:58:35;2.53;;;1.30;;
70388;SDS011;58659;49.050;8.530;2023-02-28T09:01:06;3.13;;;1.60;;
70388;SDS011;58659;49.050;8.530;2023-02-28T09:03:35;2.10;;;1.17;;
70388;SDS011;58659;49.050;8.530;2023-02-28T09:06:00;3.83;;;1.43;;
70388;SDS011;58659;49.050;8.530;2023-02-28T09:08:26;3.03;;;1.70;;
70388;SDS011;58659;49.050;8.530;2023-02-28T09:10:53;2.17;;;1.23;;
70388;SDS011;58659;49.050;8.530;2023-02-28T09:13:19;4.20;;;1.70;;
70388;SDS011;58659;49.050;8.530;2023-02-28T09:15:45;5.83;;;2.07;;
70388;SDS011;58659;49.050;8.530;2023-02-28T09:18:10;3.97;;;1.77;;
70388;SDS011;58659;49.050;8.530;2023-02-28T09:20:39;5.07;;;1.80;;
70388;SDS011;58659;49.050;8.530;2023-02-28T09:23:06;3.20;;;1.40;;
70388;SDS011;58659;49.050;8.530;2023-02-28T09:25:32;6.60;;;1.27;;
70388;SDS011;58659;49.050;8.530;2023-02-28T09:27:59;5.93;;;1.07;;
70388;SDS011;58659;49.050;8.530;2023-02-28T09:30:25;2.70;;;1.83;;
70388;SDS011;58659;49.050;8.530;2023-02-28T09:32:50;4.10;;;1.27;;
70388;SDS011;58659;49.050;8.530;2023-02-28T09:35:18;2.60;;;1.60;;
70388;SDS011;58659;49.050;8.530;2023-02-28T09:37:45;2.17;;;1.37;;
70388;SDS011;58659;49.050;8.530;2023-02-28T09:40:12;1.73;;;1.50;;
70388;SDS011;58659;49.050;8.530;2023-02-28T09:42:39;2.13;;;1.20;;
70388;SDS011;58659;49.050;8.530;2023-02-28T09:45:07;2.90;;;1.40;;
70388;SDS011;58659;49.050;8.530;2023-02-28T09:47:41;4.47;;;1.93;;
70388;SDS011;58659;49.050;8.530;2023-02-28T09:53:30;6.33;;;1.43;;
70388;SDS011;58659;49.050;8.530;2023-02-28T09:55:59;1.60;;;1.17;;
70388;SDS011;58659;49.050;8.530;2023-02-28T09:58:41;2.70;;;1.53;;
70388;SDS011;58659;49.050;8.530;2023-02-28T10:01:24;4.00;;;1.10;;
70388;SDS011;58659;49.050;8.530;2023-02-28T10:06:58;4.33;;;1.43;;
70388;SDS011;58659;49.050;8.530;2023-02-28T10:09:32;3.63;;;1.10;;
70388;SDS011;58659;49.050;8.530;2023-02-28T10:12:02;5.67;;;1.33;;
70388;SDS011;58659;49.050;8.530;2023-02-28T10:14:31;2.10;;;1.53;;
70388;SDS011;58659;49.050;8.530;2023-02-28T10:16:59;3.00;;;1.30;;
70388;SDS011;58659;49.050;8.530;2023-02-28T10:22:22;3.43;;;1.70;;
70388;SDS011;58659;49.050;8.530;2023-02-28T10:24:56;6.07;;;1.60;;
70388;SDS011;58659;49.050;8.530;2023-02-28T10:27:31;2.47;;;1.40;;
70388;SDS011;58659;49.050;8.530;2023-02-28T10:30:00;2.80;;;1.73;;
70388;SDS011;58659;49.050;8.530;2023-02-28T10:32:30;3.73;;;1.30;;
70388;SDS011;58659;49.050;8.530;2023-02-28T10:37:27;1.60;;;1.27;;
70388;SDS011;58659;49.050;8.530;2023-02-28T10:39:53;3.20;;;1.80;;
70388;SDS011;58659;49.050;8.530;2023-02-28T10:42:23;5.00;;;1.30;;
70388;SDS011;58659;49.050;8.530;2023-02-28T10:47:32;3.83;;;1.97;;
70388;SDS011;58659;49.050;8.530;2023-02-28T10:49:59;4.13;;;1.60;;
70388;SDS011;58659;49.050;8.530;2023-02-28T10:52:39;4.23;;;2.30;;
70388;SDS011;58659;49.050;8.530;2023-02-28T10:55:15;3.50;;;1.40;;
70388;SDS011;58659;49.050;8.530;2023-02-28T10:57:46;2.37;;;1.47;;
70388;SDS011;58659;49.050;8.530;2023-02-28T11:00:14;2.87;;;1.30;;
70388;SDS011;58659;49.050;8.530;2023-02-28T11:02:40;3.30;;;1.50;;
70388;SDS011;58659;49.050;8.530;2023-02-28T11:08:17;2.30;;;1.23;;
70388;SDS011;58659;49.050;8.530;2023-02-28T11:10:46;3.57;;;1.83;;
70388;SDS011;58659;49.050;8.530;2023-02-28T11:13:16;4.83;;;2.10;;
70388;SDS011;58659;49.050;8.530;2023-02-28T11:15:49;4.33;;;2.07;;
70388;SDS011;58659;49.050;8.530;2023-02-28T11:20:52;7.30;;;1.83;;
70388;SDS011;58659;49.050;8.530;2023-02-28T11:23:20;2.07;;;1.73;;
70388;SDS011;58659;49.050;8.530;2023-02-28T11:25:50;3.53;;;1.70;;
70388;SDS011;58659;49.050;8.530;2023-02-28T11:28:34;3.10;;;1.40;;
70388;SDS011;58659;49.050;8.530;2023-02-28T11:31:03;3.57;;;1.20;;
70388;SDS011;58659;49.050;8.530;2023-02-28T11:36:14;2.23;;;1.43;;
70388;SDS011;58659;49.050;8.530;2023-02-28T11:38:42;1.93;;;1.27;;
70388;SDS011;58659;49.050;8.530;2023-02-28T11:41:13;6.30;;;1.57;;
70388;SDS011;58659;49.050;8.530;2023-02-28T11:51:47;3.57;;;1.03;;
70388;SDS011;58659;49.050;8.530;2023-02-28T11:57:03;3.60;;;1.40;;
70388;SDS011;58659;49.050;8.530;2023-02-28T12:02:26;2.87;;;1.70;;
70388;SDS011;58659;49.050;8.530;2023-02-28T12:04:57;0.97;;;0.70;;
70388;SDS011;58659;49.050;8.530;2023-02-28T12:10:10;4.07;;;1.23;;
70388;SDS011;58659;49.050;8.530;2023-02-28T12:13:29;2.60;;;1.17;;
70388;SDS011;58659;49.050;8.530;2023-02-28T12:21:40;1.73;;;1.20;;
70388;SDS011;58659;49.050;8.530;2023-02-28T12:24:40;2.87;;;1.00;;
70388;SDS011;58659;49.050;8.530;2023-02-28T12:27:37;2.93;;;1.33;;
70388;SDS011;58659;49.050;8.530;2023-02-28T12:30:08;1.30;;;1.17;;
70388;SDS011;58659;49.050;8.530;2023-02-28T12:32:42;0.63;;;0.63;;
70388;SDS011;58659;49.050;8.530;2023-02-28T12:35:12;4.73;;;1.60;;
70388;SDS011;58659;49.050;8.530;2023-02-28T12:40:41;2.67;;;1.43;;
70388;SDS011;58659;49.050;8.530;2023-02-28T12:43:16;3.43;;;1.87;;
70388;SDS011;58659;49.050;8.530;2023-02-28T12:48:14;2.63;;;1.20;;
70388;SDS011;58659;49.050;8.530;2023-02-28T12:50:45;1.70;;;1.37;;
70388;SDS011;58659;49.050;8.530;2023-02-28T12:56:08;3.07;;;1.37;;
70388;SDS011;58659;49.050;8.530;2023-02-28T12:59:10;2.33;;;1.67;;
70388;SDS011;58659;49.050;8.530;2023-02-28T13:07:54;1.90;;;1.13;;
70388;SDS011;58659;49.050;8.530;2023-02-28T13:11:01;6.37;;;1.33;;
70388;SDS011;58659;49.050;8.530;2023-02-28T13:13:28;2.50;;;1.93;;
70388;SDS011;58659;49.050;8.530;2023-02-28T13:15:59;1.30;;;1.20;;
70388;SDS011;58659;49.050;8.530;2023-02-28T13:24:09;2.00;;;0.83;;
70388;SDS011;58659;49.050;8.530;2023-02-28T13:29:02;3.07;;;1.47;;
70388;SDS011;58659;49.050;8.530;2023-02-28T13:34:33;2.30;;;2.00;;
70388;SDS011;58659;49.050;8.530;2023-02-28T13:47:28;4.83;;;2.07;;
70388;SDS011;58659;49.050;8.530;2023-02-28T13:50:07;2.17;;;1.13;;
70388;SDS011;58659;49.050;8.530;2023-02-28T14:06:28;4.80;;;1.90;;
70388;SDS011;58659;49.050;8.530;2023-02-28T14:11:45;6.63;;;1.40;;
70388;SDS011;58659;49.050;8.530;2023-02-28T14:17:16;4.70;;;1.50;;
70388;SDS011;58659;49.050;8.530;2023-02-28T14:19:45;3.17;;;1.97;;
70388;SDS011;58659;49.050;8.530;2023-02-28T14:25:39;2.23;;;1.10;;
70388;SDS011;58659;49.050;8.530;2023-02-28T14:38:52;3.50;;;1.53;;
70388;SDS011;58659;49.050;8.530;2023-02-28T14:44:16;3.03;;;1.40;;
70388;SDS011;58659;49.050;8.530;2023-02-28T14:46:53;3.33;;;1.57;;
70388;SDS011;58659;49.050;8.530;2023-02-28T14:49:21;2.67;;;1.60;;
70388;SDS011;58659;49.050;8.530;2023-02-28T14:51:50;3.70;;;1.47;;
70388;SDS011;58659;49.050;8.530;2023-02-28T14:54:26;2.80;;;1.30;;
70388;SDS011;58659;49.050;8.530;2023-02-28T14:56:51;5.40;;;1.60;;
70388;SDS011;58659;49.050;8.530;2023-02-28T15:01:51;4.27;;;1.33;;
70388;SDS011;58659;49.050;8.530;2023-02-28T15:04:25;5.30;;;1.73;;
70388;SDS011;58659;49.050;8.530;2023-02-28T15:07:08;2.67;;;1.27;;
70388;SDS011;58659;49.050;8.530;2023-02-28T15:09:38;4.20;;;1.40;;
70388;SDS011;58659;49.050;8.530;2023-02-28T15:12:04;2.93;;;1.87;;
70388;SDS011;58659;49.050;8.530;2023-02-28T15:14:29;2.60;;;1.33;;
70388;SDS011;58659;49.050;8.530;2023-02-28T15:16:57;2.70;;;1.73;;
70388;SDS011;58659;49.050;8.530;2023-02-28T15:19:36;4.83;;;1.90;;
70388;SDS011;58659;49.050;8.530;2023-02-28T15:22:08;5.33;;;1.63;;
70388;SDS011;58659;49.050;8.530;2023-02-28T15:27:12;5.40;;;1.93;;
70388;SDS011;58659;49.050;8.530;2023-02-28T15:29:45;3.17;;;1.70;;
70388;SDS011;58659;49.050;8.530;2023-02-28T15:32:33;5.23;;;1.90;;
70388;SDS011;58659;49.050;8.530;2023-02-28T15:35:18;3.00;;;2.07;;
70388;SDS011;58659;49.050;8.530;2023-02-28T15:43:14;6.97;;;2.50;;
70388;SDS011;58659;49.050;8.530;2023-02-28T15:45:44;4.33;;;2.00;;
70388;SDS011;58659;49.050;8.530;2023-02-28T15:48:44;5.77;;;2.07;;
70388;SDS011;58659;49.050;8.530;2023-02-28T15:51:33;7.53;;;3.17;;
70388;SDS011;58659;49.050;8.530;2023-02-28T15:54:02;8.17;;;2.93;;
70388;SDS011;58659;49.050;8.530;2023-02-28T15:56:33;6.60;;;3.03;;
70388;SDS011;58659;49.050;8.530;2023-02-28T15:59:04;9.17;;;3.20;;
70388;SDS011;58659;49.050;8.530;2023-02-28T16:01:33;11.83;;;4.63;;
70388;SDS011;58659;49.050;8.530;2023-02-28T16:04:20;6.67;;;2.77;;
70388;SDS011;58659;49.050;8.530;2023-02-28T16:06:45;7.23;;;2.97;;
70388;SDS011;58659;49.050;8.530;2023-02-28T16:09:22;13.37;;;4.60;;
70388;SDS011;58659;49.050;8.530;2023-02-28T16:11:48;10.20;;;2.50;;
70388;SDS011;58659;49.050;8.530;2023-02-28T16:14:18;7.90;;;2.90;;
70388;SDS011;58659;49.050;8.530;2023-02-28T16:16:50;3.53;;;1.83;;
70388;SDS011;58659;49.050;8.530;2023-02-28T16:19:19;3.43;;;1.87;;
70388;SDS011;58659;49.050;8.530;2023-02-28T16:21:45;5.27;;;2.27;;
70388;SDS011;58659;49.050;8.530;2023-02-28T16:24:12;8.23;;;3.03;;
70388;SDS011;58659;49.050;8.530;2023-02-28T16:26:38;6.33;;;2.00;;
70388;SDS011;58659;49.050;8.530;2023-02-28T16:29:06;4.87;;;1.73;;
70388;SDS011;58659;49.050;8.530;2023-02-28T16:31:33;6.27;;;2.90;;
70388;SDS011;58659;49.050;8.530;2023-02-28T16:34:01;3.77;;;2.13;;
70388;SDS011;58659;49.050;8.530;2023-02-28T16:36:26;3.53;;;1.80;;
70388;SDS011;58659;49.050;8.530;2023-02-28T16:38:53;3.80;;;1.80;;
70388;SDS011;58659;49.050;8.530;2023-02-28T16:41:20;5.47;;;2.47;;
70388;SDS011;58659;49.050;8.530;2023-02-28T16:43:49;3.57;;;2.50;;
70388;SDS011;58659;49.050;8.530;2023-02-28T16:46:16;4.07;;;1.90;;
70388;SDS011;58659;49.050;8.530;2023-02-28T16:48:45;7.33;;;3.10;;
70388;SDS011;58659;49.050;8.530;2023-02-28T16:51:14;8.13;;;3.23;;
70388;SDS011;58659;49.050;8.530;2023-02-28T16:53:40;4.17;;;1.60;;
70388;SDS011;58659;49.050;8.530;2023-02-28T16:56:06;6.93;;;2.10;;
70388;SDS011;58659;49.050;8.530;2023-02-28T16:58:36;2.93;;;1.90;;
70388;SDS011;58659;49.050;8.530;2023-02-28T17:01:02;3.50;;;1.70;;
70388;SDS011;58659;49.050;8.530;2023-02-28T17:03:28;6.33;;;2.50;;
70388;SDS011;58659;49.050;8.530;2023-02-28T17:05:54;4.77;;;1.80;;
70388;SDS011;58659;49.050;8.530;2023-02-28T17:08:20;5.90;;;1.63;;
70388;SDS011;58659;49.050;8.530;2023-02-28T17:10:45;5.47;;;2.40;;
70388;SDS011;58659;49.050;8.530;2023-02-28T17:13:11;3.40;;;2.30;;
70388;SDS011;58659;49.050;8.530;2023-02-28T17:15:36;4.77;;;2.00;;
70388;SDS011;58659;49.050;8.530;2023-02-28T17:18:03;5.57;;;2.43;;
70388;SDS011;58659;49.050;8.530;2023-02-28T17:20:29;8.43;;;2.17;;
70388;SDS011;58659;49.050;8.530;2023-02-28T17:22:54;5.50;;;2.70;;
70388;SDS011;58659;49.050;8.530;2023-02-28T17:25:21;6.40;;;2.37;;
70388;SDS011;58659;49.050;8.530;2023-02-28T17:27:47;5.80;;;2.40;;
70388;SDS011;58659;49.050;8.530;2023-02-28T17:30:22;5.63;;;2.37;;
70388;SDS011;58659;49.050;8.530;2023-02-28T17:32:49;4.80;;;2.50;;
70388;SDS011;58659;49.050;8.530;2023-02-28T17:35:15;4.90;;;2.40;;
70388;SDS011;58659;49.050;8.530;2023-02-28T17:37:40;4.63;;;1.73;;
70388;SDS011;58659;49.050;8.530;2023-02-28T17:40:09;4.93;;;2.40;;
70388;SDS011;58659;49.050;8.530;2023-02-28T17:42:38;5.03;;;1.80;;
70388;SDS011;58659;49.050;8.530;2023-02-28T17:45:04;6.27;;;3.20;;
70388;SDS011;58659;49.050;8.530;2023-02-28T17:47:29;6.37;;;2.23;;
70388;SDS011;58659;49.050;8.530;2023-02-28T17:49:54;8.63;;;3.10;;